Terminal Aerodrome Forecast
Issued by NWS Mt. Holly, NJ

Home | Current Version | Previous Version | Text Only | Print | Product List | Glossary On
Versions: 1 2 3 4 5 6 7 8 9 10 11 12 13 14 15 16 17 18 19 20 21 22 23 24 25 26 27
000
FTUS41 KPHI 010544
TAFPHL
TAF
KPHL 010544Z 0106/0212 VRB04KT P6SM BKN250
      TEMPO 0108/0110 6SM BR
     FM011200 05006KT P6SM FEW080 BKN250
     FM011600 10008KT P6SM FEW060 BKN250
     FM012100 13010KT P6SM SCT060 SCT250
     FM020200 09006KT P6SM SCT250
     FM020800 07005KT 4SM BR SCT005=

USA.gov is the U.S. government's official web portal to all federal, state and local government web resources and services.